Aviation Digital Data Service (ADDS)

Output produced by METARs form (1727 UTC 20 January 2019)
found at http://www.aviationweather.gov/metar/data/
 
GLRB 201630Z 15006KT 9999 TS BKN020 FEW026CB 29/23 Q1012 RMK CB-NE/E/SE TEMPO TS
TAF GLRB 201000Z 2012/2118 22010KT 9999 BKN020 
     TEMPO 2014/2018 19008KT SCT018 FEW026CB 
     TEMPO 2020/2100 00000KT 8000 FEW012 
     BECMG 2101/2103 00000KT 7000